Terminal Aerodrome Forecast
Issued by NWS Goodland, KS

Home | Current Version | Previous Version | Text Only | Print | Product List | Glossary On
Versions: 1 2 3 4 5 6 7 8 9 10 11 12 13 14 15 16 17 18 19 20 21 22 23 24 25
175
FTUS43 KGLD 260520
TAFGLD
TAF
KGLD 260520Z 2606/2706 16007KT 6SM BR OVC005
     FM260800 17006KT 6SM BR SCT005 OVC012
      TEMPO 2611/2613 3SM BR BKN005
     FM261400 20007KT P6SM SCT090
     FM262000 10006KT P6SM VCSH SCT090 BKN150
     FM270100 12010KT P6SM VCSH BKN090=

USA.gov is the U.S. government's official web portal to all federal, state and local government web resources and services.